createdAt,value
2023-01-17T00:03:56.064Z,17.70
2023-01-17T00:09:17.668Z,20.50
2023-01-17T00:14:20.780Z,18.00
2023-01-17T00:19:42.626Z,19.00
2023-01-17T00:25:04.470Z,17.90
2023-01-17T00:30:08.335Z,18.90
2023-01-17T00:35:11.300Z,17.80
2023-01-17T00:40:14.417Z,21.30
2023-01-17T00:45:36.266Z,18.50
2023-01-17T00:50:58.110Z,24.10
2023-01-17T00:56:21.393Z,19.50
2023-01-17T01:01:43.061Z,17.80
2023-01-17T01:07:04.673Z,17.40
2023-01-17T01:12:26.316Z,18.30
2023-01-17T01:17:47.754Z,14.60
2023-01-17T01:23:09.092Z,15.70
2023-01-17T01:28:33.603Z,15.40
2023-01-17T01:33:36.607Z,11.20
2023-01-17T01:38:40.042Z,14.50
2023-01-17T01:43:50.007Z,9.80
2023-01-17T01:48:58.855Z,14.90
2023-01-17T01:54:12.294Z,11.40
2023-01-17T01:59:19.554Z,10.70
2023-01-17T02:04:23.538Z,8.90
2023-01-17T02:09:27.913Z,8.30
2023-01-17T02:14:31.070Z,8.50
2023-01-17T02:20:07.358Z,8.30
2023-01-17T02:25:28.899Z,5.30
2023-01-17T02:30:42.664Z,6.20
2023-01-17T02:36:16.809Z,5.90
2023-01-17T02:41:25.112Z,6.10
2023-01-17T02:46:28.031Z,7.20
2023-01-17T02:51:45.184Z,6.90
2023-01-17T02:57:03.643Z,6.70
2023-01-17T03:02:10.510Z,6.40
2023-01-17T03:07:17.716Z,3.80
2023-01-17T03:12:21.743Z,7.10
2023-01-17T03:17:29.287Z,3.70
2023-01-17T03:22:32.390Z,3.50
2023-01-17T03:27:35.407Z,4.90
2023-01-17T03:32:38.404Z,5.20
2023-01-17T03:37:41.412Z,4.90
2023-01-17T03:42:44.528Z,5.00
2023-01-17T03:47:47.420Z,5.20
2023-01-17T03:52:51.357Z,3.90
2023-01-17T03:57:54.252Z,6.10
2023-01-17T04:02:57.259Z,3.70
2023-01-17T04:08:00.278Z,4.80
2023-01-17T04:13:03.271Z,5.40
2023-01-17T04:18:07.034Z,4.70
2023-01-17T04:23:10.631Z,4.30
2023-01-17T04:28:14.032Z,5.00
2023-01-17T04:33:17.446Z,7.60
2023-01-17T04:38:20.768Z,5.90
2023-01-17T04:43:23.765Z,6.90
2023-01-17T04:48:27.418Z,7.20
2023-01-17T04:53:30.616Z,5.60
2023-01-17T04:58:33.915Z,8.40
2023-01-17T05:03:36.933Z,7.90
2023-01-17T05:08:40.028Z,9.60
2023-01-17T05:13:43.138Z,11.10
2023-01-17T05:18:46.156Z,11.60
2023-01-17T05:23:49.360Z,11.00
2023-01-17T05:28:52.357Z,15.10
2023-01-17T05:33:55.480Z,15.20
2023-01-17T05:38:58.374Z,11.30
2023-01-17T05:44:01.377Z,19.10
2023-01-17T05:49:04.596Z,15.80
2023-01-17T05:54:07.596Z,17.60
2023-01-17T05:59:13.953Z,16.90
2023-01-17T06:04:17.383Z,18.60
2023-01-17T06:09:20.405Z,18.40
2023-01-17T06:14:23.512Z,20.60
2023-01-17T06:19:26.518Z,24.50
2023-01-17T06:24:30.552Z,24.90
2023-01-17T06:29:33.560Z,26.40
2023-01-17T06:34:37.902Z,25.80
2023-01-17T06:39:41.107Z,34.00
2023-01-17T06:44:44.110Z,39.30
2023-01-17T06:49:47.220Z,34.30
2023-01-17T06:54:50.125Z,39.40
2023-01-17T06:59:53.314Z,49.60
2023-01-17T07:04:56.339Z,62.00
2023-01-17T07:10:00.584Z,52.00
2023-01-17T07:15:04.160Z,41.80
2023-01-17T07:20:08.261Z,46.40
2023-01-17T07:25:11.240Z,57.50
2023-01-17T07:30:14.838Z,49.20
2023-01-17T07:35:18.399Z,66.00
2023-01-17T07:40:22.722Z,65.60
2023-01-17T07:45:25.623Z,47.20
2023-01-17T07:50:28.726Z,35.80
2023-01-17T07:55:31.840Z,27.60
2023-01-17T08:00:34.839Z,31.00
2023-01-17T08:05:37.858Z,21.90
2023-01-17T08:10:40.852Z,22.50
2023-01-17T08:15:43.857Z,23.80
2023-01-17T08:20:46.965Z,25.60
2023-01-17T08:25:50.180Z,30.10
2023-01-17T08:30:53.185Z,24.20
2023-01-17T08:35:56.393Z,27.00
2023-01-17T08:41:02.986Z,38.20
2023-01-17T08:46:06.595Z,31.30
2023-01-17T08:51:09.979Z,35.40
2023-01-17T08:56:13.132Z,33.70
2023-01-17T09:01:16.512Z,30.00
2023-01-17T09:06:19.967Z,31.30
2023-01-17T09:11:22.866Z,29.70
2023-01-17T09:16:26.320Z,23.40
2023-01-17T09:21:29.699Z,23.30
2023-01-17T09:26:32.707Z,24.20
2023-01-17T09:31:35.934Z,24.80
2023-01-17T09:36:39.022Z,23.50
2023-01-17T09:42:00.567Z,22.90
2023-01-17T09:47:15.796Z,32.50
2023-01-17T09:52:23.473Z,30.10
2023-01-17T09:57:59.727Z,27.30
2023-01-17T10:03:24.146Z,30.20
2023-01-17T10:09:18.751Z,26.60
2023-01-17T10:14:40.840Z,22.00
2023-01-17T10:20:12.014Z,20.20
2023-01-17T10:25:43.089Z,23.60
2023-01-17T10:30:58.391Z,26.60
2023-01-17T10:36:05.767Z,19.40
2023-01-17T10:41:24.445Z,22.50
2023-01-17T10:46:56.433Z,16.20
2023-01-17T10:52:13.468Z,20.80
2023-01-17T10:57:21.377Z,16.80
2023-01-17T11:02:30.030Z,16.90
2023-01-17T11:07:33.140Z,21.40
2023-01-17T11:12:47.282Z,15.80
2023-01-17T11:18:15.105Z,26.20
2023-01-17T11:23:21.483Z,21.40
2023-01-17T11:28:33.147Z,20.60
2023-01-17T11:33:55.876Z,17.60
2023-01-17T11:39:04.778Z,18.60
2023-01-17T11:44:26.451Z,18.40
2023-01-17T11:49:29.552Z,17.80
2023-01-17T11:54:39.246Z,17.50
2023-01-17T11:59:46.044Z,19.70
2023-01-17T12:04:52.004Z,29.40
2023-01-17T12:10:19.875Z,26.40
2023-01-17T12:15:34.146Z,19.00
2023-01-17T12:20:51.291Z,25.30
2023-01-17T12:26:19.888Z,20.60
2023-01-17T12:31:36.974Z,22.80
2023-01-17T12:36:49.711Z,23.70
2023-01-17T12:42:00.006Z,19.10
2023-01-17T12:47:05.927Z,21.30
2023-01-17T12:52:29.812Z,18.30
2023-01-17T12:57:39.370Z,24.60
2023-01-17T13:02:54.363Z,29.00
2023-01-17T13:08:12.827Z,26.20
2023-01-17T13:13:24.329Z,28.50
2023-01-17T13:18:30.020Z,18.80
2023-01-17T13:24:07.965Z,20.60
2023-01-17T13:29:22.921Z,19.50
2023-01-17T13:34:41.994Z,19.30
2023-01-17T13:40:22.701Z,15.80
2023-01-17T13:50:40.992Z,18.30
2023-01-17T13:55:46.870Z,25.00
2023-01-17T14:00:50.875Z,23.90
2023-01-17T14:05:57.579Z,27.50
2023-01-17T14:11:09.987Z,21.00
2023-01-17T14:16:22.006Z,21.50
2023-01-17T14:21:26.979Z,22.60
2023-01-17T14:26:32.869Z,20.60
2023-01-17T14:31:36.082Z,26.30
2023-01-17T14:36:39.738Z,16.60
2023-01-17T14:41:43.612Z,15.20
2023-01-17T14:46:49.063Z,13.80
2023-01-17T14:52:02.837Z,17.70
2023-01-17T14:57:35.129Z,18.30
2023-01-17T15:02:43.904Z,20.60
2023-01-17T15:07:53.027Z,18.20
2023-01-17T15:12:57.938Z,18.00
2023-01-17T15:18:20.951Z,23.60
2023-01-17T15:23:30.046Z,28.50
2023-01-17T15:28:34.725Z,29.90
2023-01-17T15:33:41.250Z,24.80
2023-01-17T15:38:52.942Z,23.30
2023-01-17T15:43:58.710Z,24.10
2023-01-17T15:49:31.316Z,31.00
2023-01-17T15:54:50.564Z,22.50
2023-01-17T16:00:16.046Z,20.80
2023-01-17T16:05:22.312Z,20.30
2023-01-17T16:10:28.936Z,27.60
2023-01-17T16:15:32.456Z,25.10
2023-01-17T16:20:39.339Z,24.90
2023-01-17T16:25:42.430Z,18.50
2023-01-17T16:30:46.366Z,19.70
2023-01-17T16:35:51.439Z,14.60
2023-01-17T16:40:54.625Z,17.70
2023-01-17T16:45:58.190Z,27.40
2023-01-17T16:51:06.167Z,23.80
2023-01-17T16:56:13.745Z,21.00
2023-01-17T17:01:20.905Z,16.30
2023-01-17T17:06:24.096Z,24.00
2023-01-17T17:11:27.102Z,12.60
2023-01-17T17:16:31.004Z,16.20
2023-01-17T17:21:37.004Z,20.70
2023-01-17T17:26:41.158Z,18.40
2023-01-17T17:31:44.354Z,18.50
2023-01-17T17:36:47.463Z,15.00
2023-01-17T17:41:50.465Z,24.40
2023-01-17T17:46:53.675Z,17.10
2023-01-17T17:52:04.655Z,18.40
2023-01-17T17:57:07.777Z,20.70
2023-01-17T18:02:11.344Z,40.20
2023-01-17T18:07:15.024Z,26.30
2023-01-17T18:12:18.131Z,21.90
2023-01-17T18:17:21.083Z,27.30
2023-01-17T18:22:24.578Z,23.20
2023-01-17T18:27:27.563Z,21.70
2023-01-17T18:32:30.662Z,24.20
2023-01-17T18:37:34.191Z,21.70
2023-01-17T18:42:37.395Z,22.20
2023-01-17T18:47:40.325Z,23.40
2023-01-17T18:52:43.301Z,19.80
2023-01-17T18:57:46.314Z,23.80
2023-01-17T19:02:49.316Z,20.10
2023-01-17T19:07:52.717Z,13.50
2023-01-17T19:12:55.844Z,20.20
2023-01-17T19:17:58.958Z,18.00
2023-01-17T19:23:02.057Z,15.00
2023-01-17T19:28:05.268Z,18.40
2023-01-17T19:33:08.283Z,17.90
2023-01-17T19:38:11.288Z,16.60
2023-01-17T19:43:14.293Z,19.00
2023-01-17T19:48:17.297Z,14.10
2023-01-17T19:53:21.814Z,13.80
2023-01-17T19:58:24.748Z,17.40
2023-01-17T20:03:28.270Z,24.40
2023-01-17T20:08:31.373Z,23.50
2023-01-17T20:13:34.585Z,27.50
2023-01-17T20:18:38.619Z,29.40
2023-01-17T20:23:43.189Z,60.80
2023-01-17T20:28:47.922Z,61.10
2023-01-17T20:33:53.376Z,50.40
2023-01-17T20:38:57.462Z,78.10
2023-01-17T20:44:02.466Z,79.00
2023-01-17T20:49:07.821Z,81.00
2023-01-17T20:54:14.420Z,73.10
2023-01-17T20:59:20.392Z,88.70
2023-01-17T21:04:26.098Z,70.30
2023-01-17T21:09:29.159Z,27.30
2023-01-17T21:14:32.313Z,17.60
2023-01-17T21:19:36.711Z,19.50
2023-01-17T21:24:39.716Z,20.70
2023-01-17T21:29:42.818Z,25.60
2023-01-17T21:34:46.240Z,27.10
2023-01-17T21:39:54.893Z,89.40
2023-01-17T21:44:57.985Z,17.50
2023-01-17T21:50:01.212Z,17.60
2023-01-17T21:55:23.451Z,13.60
2023-01-17T22:00:26.454Z,13.80
2023-01-17T22:05:29.676Z,29.40
2023-01-17T22:10:33.401Z,47.70
2023-01-17T22:15:36.657Z,61.00
2023-01-17T22:20:41.414Z,26.10
2023-01-17T22:25:44.466Z,33.30
2023-01-17T22:30:47.685Z,49.10
2023-01-17T22:35:58.587Z,51.30
2023-01-17T22:41:09.776Z,49.40
2023-01-17T22:46:15.470Z,29.20
2023-01-17T22:51:20.509Z,22.50
2023-01-17T22:56:28.718Z,18.50
2023-01-17T23:01:33.067Z,16.50
2023-01-17T23:06:39.264Z,20.50
2023-01-17T23:11:50.041Z,37.80
2023-01-17T23:17:14.123Z,19.90
2023-01-17T23:22:29.188Z,19.80
2023-01-17T23:27:51.776Z,20.40
2023-01-17T23:33:00.119Z,17.90
2023-01-17T23:38:22.367Z,20.70
2023-01-17T23:43:25.579Z,17.20
2023-01-17T23:48:29.174Z,17.50
2023-01-17T23:53:32.228Z,25.40
2023-01-17T23:58:35.314Z,15.40
